General Aviation Weather

Text Reports

Enter one or more of the following location identifiers separated by a space:

Zip Code, Four-Character ICAO or Three-Character IATA airport codes.

METAR - Aviation Routine Weather Report
KOJA - Weatherford, Oklahoma
Updated at 8:35 PM GMT on September 01, 2015 (3:35 PM CDT):
METAR KOJA 012035Z AUTO 17011G16KT 10SM SCT075 34/15 A2998 RMK AO2
TAF - Terminal Area Forecast
KOJA - Weatherford, Oklahoma
Updated at 8:35 PM GMT on September 01, 2015 (3:35 PM CDT):
No TAF is currently available for this location.
Decoded:
No decoded TAF is available.
PIREP - Pilot Weather Report
KOJA - Weatherford, Oklahoma
Updated at 8:35 PM GMT on September 01, 2015 (3:35 PM CDT):
No PIREP is currently available for this location.
AIRMET - Airmens Meteorological Information
KOJA - Weatherford, Oklahoma
Updated at 8:35 PM GMT on September 01, 2015 (3:35 PM CDT):
No AIRMET is currently available for this location.
SIGMET - Significant Meteorological Information
KOJA - Weatherford, Oklahoma
Updated at 8:35 PM GMT on September 01, 2015 (3:35 PM CDT):
No SIGMET is currently available for this location.
NOTAM - Notice to Airmen
KOJA - Weatherford, Oklahoma
Updated at 8:35 PM GMT on September 01, 2015 (3:35 PM CDT):
No NOTAM is currently available for this location.
Forecast Area
KOJA - Weatherford, Oklahoma
Updated at 8:35 PM GMT on September 01, 2015 (3:35 PM CDT):
No NOTAM is currently available for this location.
Aviation Weather Maps